sensor_id;sensor_type;location;lat;lon;timestamp;P1;durP1;ratioP1;P2;durP2;ratioP2
72920;SDS011;61064;51.654;5.476;2023-08-17T00:01:57;6.20;;;1.57;;
72920;SDS011;61064;51.654;5.476;2023-08-17T00:04:22;6.73;;;1.70;;
72920;SDS011;61064;51.654;5.476;2023-08-17T00:06:47;6.20;;;1.60;;
72920;SDS011;61064;51.654;5.476;2023-08-17T00:09:13;5.23;;;1.60;;
72920;SDS011;61064;51.654;5.476;2023-08-17T00:11:39;7.15;;;1.70;;
72920;SDS011;61064;51.654;5.476;2023-08-17T00:14:04;6.47;;;2.00;;
72920;SDS011;61064;51.654;5.476;2023-08-17T00:16:30;8.45;;;1.80;;
72920;SDS011;61064;51.654;5.476;2023-08-17T00:18:56;6.70;;;1.67;;
72920;SDS011;61064;51.654;5.476;2023-08-17T00:21:22;7.60;;;1.70;;
72920;SDS011;61064;51.654;5.476;2023-08-17T00:23:47;8.17;;;1.80;;
72920;SDS011;61064;51.654;5.476;2023-08-17T00:26:13;6.83;;;1.60;;
72920;SDS011;61064;51.654;5.476;2023-08-17T00:28:39;6.40;;;1.70;;
72920;SDS011;61064;51.654;5.476;2023-08-17T00:31:04;5.40;;;1.70;;
72920;SDS011;61064;51.654;5.476;2023-08-17T00:33:30;5.63;;;1.50;;
72920;SDS011;61064;51.654;5.476;2023-08-17T00:35:55;6.83;;;1.67;;
72920;SDS011;61064;51.654;5.476;2023-08-17T00:38:20;6.60;;;1.80;;
72920;SDS011;61064;51.654;5.476;2023-08-17T00:40:46;6.97;;;1.60;;
72920;SDS011;61064;51.654;5.476;2023-08-17T00:43:12;6.35;;;1.60;;
72920;SDS011;61064;51.654;5.476;2023-08-17T00:45:37;7.43;;;2.00;;
72920;SDS011;61064;51.654;5.476;2023-08-17T00:48:03;6.67;;;1.53;;
72920;SDS011;61064;51.654;5.476;2023-08-17T00:50:32;5.32;;;1.60;;
72920;SDS011;61064;51.654;5.476;2023-08-17T00:52:59;7.25;;;1.65;;
72920;SDS011;61064;51.654;5.476;2023-08-17T00:55:25;5.38;;;1.45;;
72920;SDS011;61064;51.654;5.476;2023-08-17T00:57:52;7.73;;;1.70;;
72920;SDS011;61064;51.654;5.476;2023-08-17T01:00:19;7.75;;;1.70;;
72920;SDS011;61064;51.654;5.476;2023-08-17T01:02:47;10.40;;;1.92;;
72920;SDS011;61064;51.654;5.476;2023-08-17T01:05:12;7.95;;;1.65;;
72920;SDS011;61064;51.654;5.476;2023-08-17T01:07:38;6.87;;;1.90;;
72920;SDS011;61064;51.654;5.476;2023-08-17T01:10:04;6.43;;;1.60;;
72920;SDS011;61064;51.654;5.476;2023-08-17T01:12:32;7.43;;;1.77;;
72920;SDS011;61064;51.654;5.476;2023-08-17T01:15:08;7.82;;;1.70;;
72920;SDS011;61064;51.654;5.476;2023-08-17T01:17:47;7.03;;;1.50;;
72920;SDS011;61064;51.654;5.476;2023-08-17T01:20:14;5.23;;;1.57;;
72920;SDS011;61064;51.654;5.476;2023-08-17T01:22:42;5.13;;;1.50;;
72920;SDS011;61064;51.654;5.476;2023-08-17T01:25:10;5.88;;;1.70;;
72920;SDS011;61064;51.654;5.476;2023-08-17T01:27:39;8.73;;;1.87;;
72920;SDS011;61064;51.654;5.476;2023-08-17T01:30:07;7.53;;;1.70;;
72920;SDS011;61064;51.654;5.476;2023-08-17T01:32:53;10.38;;;1.65;;
72920;SDS011;61064;51.654;5.476;2023-08-17T01:35:28;6.80;;;1.88;;
72920;SDS011;61064;51.654;5.476;2023-08-17T01:38:17;10.03;;;1.90;;
72920;SDS011;61064;51.654;5.476;2023-08-17T01:40:45;6.20;;;1.90;;
72920;SDS011;61064;51.654;5.476;2023-08-17T01:43:12;6.63;;;1.90;;
72920;SDS011;61064;51.654;5.476;2023-08-17T01:45:39;6.40;;;1.75;;
72920;SDS011;61064;51.654;5.476;2023-08-17T01:48:05;8.43;;;1.90;;
72920;SDS011;61064;51.654;5.476;2023-08-17T01:50:30;6.57;;;1.70;;
72920;SDS011;61064;51.654;5.476;2023-08-17T01:52:56;8.07;;;1.60;;
72920;SDS011;61064;51.654;5.476;2023-08-17T01:55:21;8.37;;;2.00;;
72920;SDS011;61064;51.654;5.476;2023-08-17T01:57:48;6.07;;;1.70;;
72920;SDS011;61064;51.654;5.476;2023-08-17T02:00:13;6.60;;;1.90;;
72920;SDS011;61064;51.654;5.476;2023-08-17T02:02:39;6.30;;;2.00;;
72920;SDS011;61064;51.654;5.476;2023-08-17T02:05:05;8.67;;;1.90;;
72920;SDS011;61064;51.654;5.476;2023-08-17T02:07:31;9.70;;;1.80;;
72920;SDS011;61064;51.654;5.476;2023-08-17T02:09:56;7.93;;;1.90;;
72920;SDS011;61064;51.654;5.476;2023-08-17T02:12:22;8.97;;;1.87;;
72920;SDS011;61064;51.654;5.476;2023-08-17T02:14:47;6.43;;;1.50;;
72920;SDS011;61064;51.654;5.476;2023-08-17T02:17:12;7.65;;;1.80;;
72920;SDS011;61064;51.654;5.476;2023-08-17T02:19:38;5.97;;;1.70;;
72920;SDS011;61064;51.654;5.476;2023-08-17T02:22:04;5.13;;;1.60;;
72920;SDS011;61064;51.654;5.476;2023-08-17T02:24:29;5.50;;;1.60;;
72920;SDS011;61064;51.654;5.476;2023-08-17T02:26:55;7.73;;;1.90;;
72920;SDS011;61064;51.654;5.476;2023-08-17T02:29:20;9.40;;;1.90;;
72920;SDS011;61064;51.654;5.476;2023-08-17T02:31:45;5.77;;;1.70;;
72920;SDS011;61064;51.654;5.476;2023-08-17T02:34:11;5.60;;;1.60;;
72920;SDS011;61064;51.654;5.476;2023-08-17T02:36:36;8.10;;;2.00;;
72920;SDS011;61064;51.654;5.476;2023-08-17T02:39:02;9.67;;;1.87;;
72920;SDS011;61064;51.654;5.476;2023-08-17T02:41:28;7.15;;;1.83;;
72920;SDS011;61064;51.654;5.476;2023-08-17T02:43:55;10.40;;;1.92;;
72920;SDS011;61064;51.654;5.476;2023-08-17T02:46:20;6.47;;;1.63;;
72920;SDS011;61064;51.654;5.476;2023-08-17T02:48:46;7.57;;;1.90;;
72920;SDS011;61064;51.654;5.476;2023-08-17T02:51:12;8.63;;;1.73;;
72920;SDS011;61064;51.654;5.476;2023-08-17T02:53:38;7.55;;;1.90;;
72920;SDS011;61064;51.654;5.476;2023-08-17T02:56:04;7.90;;;1.93;;
72920;SDS011;61064;51.654;5.476;2023-08-17T02:58:29;7.00;;;1.90;;
72920;SDS011;61064;51.654;5.476;2023-08-17T03:00:54;8.30;;;1.90;;
72920;SDS011;61064;51.654;5.476;2023-08-17T03:03:20;5.10;;;1.50;;
72920;SDS011;61064;51.654;5.476;2023-08-17T03:05:45;6.13;;;2.00;;
72920;SDS011;61064;51.654;5.476;2023-08-17T03:08:10;6.83;;;1.93;;
72920;SDS011;61064;51.654;5.476;2023-08-17T03:10:36;8.03;;;2.00;;
72920;SDS011;61064;51.654;5.476;2023-08-17T03:13:02;7.35;;;2.05;;
72920;SDS011;61064;51.654;5.476;2023-08-17T03:15:28;7.07;;;2.00;;
72920;SDS011;61064;51.654;5.476;2023-08-17T03:17:53;9.90;;;2.10;;
72920;SDS011;61064;51.654;5.476;2023-08-17T03:20:18;6.93;;;1.80;;
72920;SDS011;61064;51.654;5.476;2023-08-17T03:22:44;6.03;;;1.90;;
72920;SDS011;61064;51.654;5.476;2023-08-17T03:25:09;8.03;;;1.90;;
72920;SDS011;61064;51.654;5.476;2023-08-17T03:27:34;6.50;;;1.80;;
72920;SDS011;61064;51.654;5.476;2023-08-17T03:30:00;8.80;;;1.90;;
72920;SDS011;61064;51.654;5.476;2023-08-17T03:32:25;7.15;;;1.75;;
72920;SDS011;61064;51.654;5.476;2023-08-17T03:34:51;7.00;;;1.73;;
72920;SDS011;61064;51.654;5.476;2023-08-17T03:37:16;7.80;;;1.70;;
72920;SDS011;61064;51.654;5.476;2023-08-17T03:39:41;6.83;;;2.00;;
72920;SDS011;61064;51.654;5.476;2023-08-17T03:42:07;6.80;;;1.50;;
72920;SDS011;61064;51.654;5.476;2023-08-17T03:44:32;6.50;;;1.98;;
72920;SDS011;61064;51.654;5.476;2023-08-17T03:46:58;10.80;;;1.70;;
72920;SDS011;61064;51.654;5.476;2023-08-17T03:49:23;9.37;;;2.07;;
72920;SDS011;61064;51.654;5.476;2023-08-17T03:51:48;5.87;;;1.73;;
72920;SDS011;61064;51.654;5.476;2023-08-17T03:54:14;8.43;;;1.70;;
72920;SDS011;61064;51.654;5.476;2023-08-17T03:56:39;9.13;;;2.10;;
72920;SDS011;61064;51.654;5.476;2023-08-17T03:59:04;7.82;;;1.83;;
72920;SDS011;61064;51.654;5.476;2023-08-17T04:01:30;7.47;;;1.80;;
72920;SDS011;61064;51.654;5.476;2023-08-17T04:03:55;6.60;;;1.77;;
72920;SDS011;61064;51.654;5.476;2023-08-17T04:06:21;7.20;;;1.90;;
72920;SDS011;61064;51.654;5.476;2023-08-17T04:08:47;7.33;;;1.80;;
72920;SDS011;61064;51.654;5.476;2023-08-17T04:11:12;6.33;;;1.60;;
72920;SDS011;61064;51.654;5.476;2023-08-17T04:13:37;6.17;;;1.70;;
72920;SDS011;61064;51.654;5.476;2023-08-17T04:16:03;7.80;;;2.00;;
72920;SDS011;61064;51.654;5.476;2023-08-17T04:18:28;7.97;;;1.70;;
72920;SDS011;61064;51.654;5.476;2023-08-17T04:20:54;8.50;;;1.80;;
72920;SDS011;61064;51.654;5.476;2023-08-17T04:23:19;5.50;;;1.70;;
72920;SDS011;61064;51.654;5.476;2023-08-17T04:25:46;5.97;;;1.97;;
72920;SDS011;61064;51.654;5.476;2023-08-17T04:28:12;8.80;;;2.13;;
72920;SDS011;61064;51.654;5.476;2023-08-17T04:30:38;5.83;;;2.00;;
72920;SDS011;61064;51.654;5.476;2023-08-17T04:33:03;7.00;;;2.13;;
72920;SDS011;61064;51.654;5.476;2023-08-17T04:35:29;6.83;;;2.10;;
72920;SDS011;61064;51.654;5.476;2023-08-17T04:37:55;7.60;;;2.00;;
72920;SDS011;61064;51.654;5.476;2023-08-17T04:40:20;6.50;;;2.03;;
72920;SDS011;61064;51.654;5.476;2023-08-17T04:42:45;7.80;;;2.10;;
72920;SDS011;61064;51.654;5.476;2023-08-17T04:45:10;7.43;;;1.90;;
72920;SDS011;61064;51.654;5.476;2023-08-17T04:47:36;7.00;;;1.90;;
72920;SDS011;61064;51.654;5.476;2023-08-17T04:50:02;9.02;;;1.88;;
72920;SDS011;61064;51.654;5.476;2023-08-17T04:52:28;6.53;;;1.80;;
72920;SDS011;61064;51.654;5.476;2023-08-17T04:54:53;5.77;;;1.70;;
72920;SDS011;61064;51.654;5.476;2023-08-17T04:57:18;6.87;;;1.63;;
72920;SDS011;61064;51.654;5.476;2023-08-17T04:59:44;7.30;;;1.85;;
72920;SDS011;61064;51.654;5.476;2023-08-17T05:02:10;10.13;;;3.00;;
72920;SDS011;61064;51.654;5.476;2023-08-17T05:04:35;7.13;;;2.07;;
72920;SDS011;61064;51.654;5.476;2023-08-17T05:07:01;6.60;;;1.83;;
72920;SDS011;61064;51.654;5.476;2023-08-17T05:09:27;5.93;;;1.90;;
72920;SDS011;61064;51.654;5.476;2023-08-17T05:11:52;8.77;;;2.30;;
72920;SDS011;61064;51.654;5.476;2023-08-17T05:14:18;7.43;;;1.88;;
72920;SDS011;61064;51.654;5.476;2023-08-17T05:16:43;6.20;;;1.70;;
72920;SDS011;61064;51.654;5.476;2023-08-17T05:19:09;10.23;;;2.13;;
72920;SDS011;61064;51.654;5.476;2023-08-17T05:21:34;7.47;;;2.10;;
72920;SDS011;61064;51.654;5.476;2023-08-17T05:24:00;8.83;;;2.00;;
72920;SDS011;61064;51.654;5.476;2023-08-17T05:26:25;5.80;;;1.70;;
72920;SDS011;61064;51.654;5.476;2023-08-17T05:28:51;6.18;;;1.90;;
72920;SDS011;61064;51.654;5.476;2023-08-17T05:31:16;8.30;;;1.80;;
72920;SDS011;61064;51.654;5.476;2023-08-17T05:33:41;7.10;;;2.07;;
72920;SDS011;61064;51.654;5.476;2023-08-17T05:36:07;9.77;;;2.10;;
72920;SDS011;61064;51.654;5.476;2023-08-17T05:38:33;8.68;;;1.88;;
72920;SDS011;61064;51.654;5.476;2023-08-17T05:40:58;9.00;;;1.90;;
72920;SDS011;61064;51.654;5.476;2023-08-17T05:43:25;8.18;;;2.10;;
72920;SDS011;61064;51.654;5.476;2023-08-17T05:45:51;5.70;;;2.00;;
72920;SDS011;61064;51.654;5.476;2023-08-17T05:48:20;10.50;;;2.13;;
72920;SDS011;61064;51.654;5.476;2023-08-17T05:50:46;9.13;;;1.80;;
72920;SDS011;61064;51.654;5.476;2023-08-17T05:53:12;6.30;;;1.90;;
72920;SDS011;61064;51.654;5.476;2023-08-17T05:55:37;8.43;;;2.27;;
72920;SDS011;61064;51.654;5.476;2023-08-17T05:58:03;6.88;;;2.03;;
72920;SDS011;61064;51.654;5.476;2023-08-17T06:00:31;6.50;;;1.80;;
72920;SDS011;61064;51.654;5.476;2023-08-17T06:02:56;11.47;;;2.00;;
72920;SDS011;61064;51.654;5.476;2023-08-17T06:05:26;7.67;;;1.90;;
72920;SDS011;61064;51.654;5.476;2023-08-17T06:07:58;7.68;;;1.90;;
72920;SDS011;61064;51.654;5.476;2023-08-17T06:10:24;9.13;;;2.20;;
72920;SDS011;61064;51.654;5.476;2023-08-17T06:12:53;11.15;;;3.33;;
72920;SDS011;61064;51.654;5.476;2023-08-17T06:15:23;8.45;;;2.30;;
72920;SDS011;61064;51.654;5.476;2023-08-17T06:17:50;7.47;;;1.77;;
72920;SDS011;61064;51.654;5.476;2023-08-17T06:20:16;9.05;;;2.03;;
72920;SDS011;61064;51.654;5.476;2023-08-17T06:22:41;7.23;;;1.97;;
72920;SDS011;61064;51.654;5.476;2023-08-17T06:25:07;8.60;;;2.20;;
72920;SDS011;61064;51.654;5.476;2023-08-17T06:27:33;7.65;;;1.90;;
72920;SDS011;61064;51.654;5.476;2023-08-17T06:30:00;9.30;;;2.30;;
72920;SDS011;61064;51.654;5.476;2023-08-17T06:32:25;7.10;;;1.80;;
72920;SDS011;61064;51.654;5.476;2023-08-17T06:34:51;7.07;;;2.10;;
72920;SDS011;61064;51.654;5.476;2023-08-17T06:37:19;6.47;;;1.77;;
72920;SDS011;61064;51.654;5.476;2023-08-17T06:39:44;8.27;;;2.30;;
72920;SDS011;61064;51.654;5.476;2023-08-17T06:42:10;7.27;;;1.80;;
72920;SDS011;61064;51.654;5.476;2023-08-17T06:44:35;9.57;;;2.00;;
72920;SDS011;61064;51.654;5.476;2023-08-17T06:47:00;6.97;;;1.75;;
72920;SDS011;61064;51.654;5.476;2023-08-17T06:49:26;6.53;;;1.90;;
72920;SDS011;61064;51.654;5.476;2023-08-17T06:51:51;5.93;;;1.83;;
72920;SDS011;61064;51.654;5.476;2023-08-17T06:54:17;5.97;;;1.80;;
72920;SDS011;61064;51.654;5.476;2023-08-17T06:56:42;7.60;;;2.10;;
72920;SDS011;61064;51.654;5.476;2023-08-17T06:59:07;7.60;;;2.00;;
72920;SDS011;61064;51.654;5.476;2023-08-17T07:01:33;8.53;;;2.00;;
72920;SDS011;61064;51.654;5.476;2023-08-17T07:03:58;7.57;;;2.20;;
72920;SDS011;61064;51.654;5.476;2023-08-17T07:06:24;7.63;;;2.07;;
72920;SDS011;61064;51.654;5.476;2023-08-17T07:08:49;8.27;;;2.15;;
72920;SDS011;61064;51.654;5.476;2023-08-17T07:11:15;9.20;;;2.03;;
72920;SDS011;61064;51.654;5.476;2023-08-17T07:13:40;7.87;;;2.07;;
72920;SDS011;61064;51.654;5.476;2023-08-17T07:16:05;7.23;;;2.17;;
72920;SDS011;61064;51.654;5.476;2023-08-17T07:18:31;6.53;;;2.07;;
72920;SDS011;61064;51.654;5.476;2023-08-17T07:20:56;7.10;;;2.30;;
72920;SDS011;61064;51.654;5.476;2023-08-17T07:23:21;8.60;;;2.77;;
72920;SDS011;61064;51.654;5.476;2023-08-17T07:25:47;7.07;;;2.50;;
72920;SDS011;61064;51.654;5.476;2023-08-17T07:28:13;6.93;;;1.90;;
72920;SDS011;61064;51.654;5.476;2023-08-17T07:30:40;8.25;;;2.15;;
72920;SDS011;61064;51.654;5.476;2023-08-17T07:33:06;8.97;;;2.10;;
72920;SDS011;61064;51.654;5.476;2023-08-17T07:35:31;5.70;;;1.87;;
72920;SDS011;61064;51.654;5.476;2023-08-17T07:37:56;8.00;;;2.03;;
72920;SDS011;61064;51.654;5.476;2023-08-17T07:40:22;9.15;;;2.10;;
72920;SDS011;61064;51.654;5.476;2023-08-17T07:42:47;8.47;;;2.00;;
72920;SDS011;61064;51.654;5.476;2023-08-17T07:45:13;7.50;;;2.03;;
72920;SDS011;61064;51.654;5.476;2023-08-17T07:47:38;8.10;;;1.95;;
72920;SDS011;61064;51.654;5.476;2023-08-17T07:50:04;8.10;;;2.10;;
72920;SDS011;61064;51.654;5.476;2023-08-17T07:52:30;7.95;;;2.20;;
72920;SDS011;61064;51.654;5.476;2023-08-17T07:54:55;6.40;;;2.17;;
72920;SDS011;61064;51.654;5.476;2023-08-17T07:57:21;7.47;;;2.00;;
72920;SDS011;61064;51.654;5.476;2023-08-17T07:59:46;9.07;;;2.20;;
72920;SDS011;61064;51.654;5.476;2023-08-17T08:02:12;10.07;;;1.90;;
72920;SDS011;61064;51.654;5.476;2023-08-17T08:04:37;9.97;;;2.03;;
72920;SDS011;61064;51.654;5.476;2023-08-17T08:07:03;7.78;;;1.80;;
72920;SDS011;61064;51.654;5.476;2023-08-17T08:09:28;6.53;;;2.13;;
72920;SDS011;61064;51.654;5.476;2023-08-17T08:11:53;6.63;;;1.90;;
72920;SDS011;61064;51.654;5.476;2023-08-17T08:14:19;8.00;;;1.80;;
72920;SDS011;61064;51.654;5.476;2023-08-17T08:16:44;8.73;;;2.17;;
72920;SDS011;61064;51.654;5.476;2023-08-17T08:19:10;6.40;;;1.90;;
72920;SDS011;61064;51.654;5.476;2023-08-17T08:21:35;8.57;;;2.17;;
72920;SDS011;61064;51.654;5.476;2023-08-17T08:24:00;8.20;;;2.37;;
72920;SDS011;61064;51.654;5.476;2023-08-17T08:26:26;7.67;;;2.03;;
72920;SDS011;61064;51.654;5.476;2023-08-17T08:28:51;9.50;;;2.50;;
72920;SDS011;61064;51.654;5.476;2023-08-17T08:31:16;7.43;;;2.20;;
72920;SDS011;61064;51.654;5.476;2023-08-17T08:33:42;8.88;;;1.92;;
72920;SDS011;61064;51.654;5.476;2023-08-17T08:36:09;7.70;;;2.10;;
72920;SDS011;61064;51.654;5.476;2023-08-17T08:38:34;7.65;;;2.20;;
72920;SDS011;61064;51.654;5.476;2023-08-17T08:41:00;7.33;;;1.90;;
72920;SDS011;61064;51.654;5.476;2023-08-17T08:43:29;8.07;;;2.50;;
72920;SDS011;61064;51.654;5.476;2023-08-17T08:45:55;8.70;;;2.00;;
72920;SDS011;61064;51.654;5.476;2023-08-17T08:48:21;8.30;;;2.40;;
72920;SDS011;61064;51.654;5.476;2023-08-17T08:50:48;7.20;;;2.20;;
72920;SDS011;61064;51.654;5.476;2023-08-17T08:53:18;10.10;;;2.33;;
72920;SDS011;61064;51.654;5.476;2023-08-17T08:55:55;7.70;;;2.20;;
72920;SDS011;61064;51.654;5.476;2023-08-17T08:58:24;8.97;;;2.10;;
72920;SDS011;61064;51.654;5.476;2023-08-17T09:00:50;7.18;;;2.55;;
72920;SDS011;61064;51.654;5.476;2023-08-17T09:03:17;8.18;;;2.63;;
72920;SDS011;61064;51.654;5.476;2023-08-17T09:05:47;8.50;;;2.70;;
72920;SDS011;61064;51.654;5.476;2023-08-17T09:08:13;9.32;;;2.78;;
72920;SDS011;61064;51.654;5.476;2023-08-17T09:10:40;12.50;;;2.97;;
72920;SDS011;61064;51.654;5.476;2023-08-17T09:13:06;8.30;;;2.47;;
72920;SDS011;61064;51.654;5.476;2023-08-17T09:15:32;8.63;;;2.55;;
72920;SDS011;61064;51.654;5.476;2023-08-17T09:17:57;7.93;;;3.00;;
72920;SDS011;61064;51.654;5.476;2023-08-17T09:20:38;9.83;;;3.17;;
72920;SDS011;61064;51.654;5.476;2023-08-17T09:23:17;9.73;;;2.97;;
72920;SDS011;61064;51.654;5.476;2023-08-17T09:25:45;13.43;;;3.05;;
72920;SDS011;61064;51.654;5.476;2023-08-17T09:28:12;8.30;;;3.00;;
72920;SDS011;61064;51.654;5.476;2023-08-17T09:30:52;11.00;;;3.00;;
72920;SDS011;61064;51.654;5.476;2023-08-17T09:33:31;8.68;;;3.08;;
72920;SDS011;61064;51.654;5.476;2023-08-17T09:35:58;11.25;;;3.10;;
72920;SDS011;61064;51.654;5.476;2023-08-17T09:38:24;10.00;;;3.30;;
72920;SDS011;61064;51.654;5.476;2023-08-17T09:40:50;12.23;;;3.20;;
72920;SDS011;61064;51.654;5.476;2023-08-17T09:43:17;9.40;;;3.23;;
72920;SDS011;61064;51.654;5.476;2023-08-17T09:45:47;11.27;;;3.22;;
72920;SDS011;61064;51.654;5.476;2023-08-17T09:48:18;12.35;;;3.42;;
72920;SDS011;61064;51.654;5.476;2023-08-17T09:50:44;11.82;;;3.47;;
72920;SDS011;61064;51.654;5.476;2023-08-17T09:53:14;10.60;;;3.50;;
72920;SDS011;61064;51.654;5.476;2023-08-17T09:55:42;9.75;;;3.20;;
72920;SDS011;61064;51.654;5.476;2023-08-17T09:58:11;12.75;;;3.83;;
72920;SDS011;61064;51.654;5.476;2023-08-17T10:00:44;11.40;;;3.40;;
72920;SDS011;61064;51.654;5.476;2023-08-17T10:03:20;12.05;;;3.50;;
72920;SDS011;61064;51.654;5.476;2023-08-17T10:05:49;12.30;;;3.50;;
72920;SDS011;61064;51.654;5.476;2023-08-17T10:08:22;7.53;;;3.38;;
72920;SDS011;61064;51.654;5.476;2023-08-17T10:10:48;10.32;;;3.13;;
72920;SDS011;61064;51.654;5.476;2023-08-17T10:13:37;9.15;;;3.63;;
72920;SDS011;61064;51.654;5.476;2023-08-17T10:24:05;10.77;;;3.45;;
72920;SDS011;61064;51.654;5.476;2023-08-17T10:26:32;10.18;;;4.10;;
72920;SDS011;61064;51.654;5.476;2023-08-17T10:28:58;11.00;;;3.95;;
72920;SDS011;61064;51.654;5.476;2023-08-17T10:31:26;9.67;;;3.63;;
72920;SDS011;61064;51.654;5.476;2023-08-17T10:33:52;10.93;;;4.28;;
72920;SDS011;61064;51.654;5.476;2023-08-17T10:36:18;13.32;;;4.20;;
72920;SDS011;61064;51.654;5.476;2023-08-17T10:38:45;10.40;;;3.83;;
72920;SDS011;61064;51.654;5.476;2023-08-17T10:41:14;10.02;;;3.55;;
72920;SDS011;61064;51.654;5.476;2023-08-17T10:46:34;12.05;;;3.83;;
72920;SDS011;61064;51.654;5.476;2023-08-17T10:49:01;10.35;;;4.40;;
72920;SDS011;61064;51.654;5.476;2023-08-17T10:51:34;15.48;;;4.05;;
72920;SDS011;61064;51.654;5.476;2023-08-17T10:54:03;9.55;;;4.20;;
72920;SDS011;61064;51.654;5.476;2023-08-17T10:56:29;14.23;;;4.50;;
72920;SDS011;61064;51.654;5.476;2023-08-17T10:58:59;11.75;;;4.43;;
72920;SDS011;61064;51.654;5.476;2023-08-17T11:01:36;14.20;;;4.70;;
72920;SDS011;61064;51.654;5.476;2023-08-17T11:04:10;12.65;;;4.60;;
72920;SDS011;61064;51.654;5.476;2023-08-17T11:06:45;12.70;;;5.00;;
72920;SDS011;61064;51.654;5.476;2023-08-17T11:09:11;14.17;;;5.53;;
72920;SDS011;61064;51.654;5.476;2023-08-17T11:11:37;13.27;;;5.40;;
72920;SDS011;61064;51.654;5.476;2023-08-17T11:14:04;13.00;;;5.53;;
72920;SDS011;61064;51.654;5.476;2023-08-17T11:16:30;13.15;;;5.18;;
72920;SDS011;61064;51.654;5.476;2023-08-17T11:18:55;11.53;;;4.77;;
72920;SDS011;61064;51.654;5.476;2023-08-17T11:21:24;11.52;;;5.00;;
72920;SDS011;61064;51.654;5.476;2023-08-17T11:23:50;11.83;;;4.93;;
72920;SDS011;61064;51.654;5.476;2023-08-17T11:26:16;13.90;;;5.03;;
72920;SDS011;61064;51.654;5.476;2023-08-17T11:28:42;13.80;;;4.80;;
72920;SDS011;61064;51.654;5.476;2023-08-17T11:31:10;16.58;;;5.55;;
72920;SDS011;61064;51.654;5.476;2023-08-17T11:33:38;11.95;;;4.90;;
72920;SDS011;61064;51.654;5.476;2023-08-17T11:36:05;13.00;;;5.00;;
72920;SDS011;61064;51.654;5.476;2023-08-17T11:38:40;11.68;;;5.18;;
72920;SDS011;61064;51.654;5.476;2023-08-17T11:41:07;10.67;;;4.80;;
72920;SDS011;61064;51.654;5.476;2023-08-17T11:43:34;10.50;;;4.57;;
72920;SDS011;61064;51.654;5.476;2023-08-17T11:46:01;11.27;;;5.03;;
72920;SDS011;61064;51.654;5.476;2023-08-17T11:48:27;12.15;;;5.13;;
72920;SDS011;61064;51.654;5.476;2023-08-17T11:50:53;12.25;;;4.95;;
72920;SDS011;61064;51.654;5.476;2023-08-17T11:53:25;10.63;;;4.73;;
72920;SDS011;61064;51.654;5.476;2023-08-17T11:56:04;12.32;;;5.05;;
72920;SDS011;61064;51.654;5.476;2023-08-17T11:58:40;14.30;;;5.25;;
72920;SDS011;61064;51.654;5.476;2023-08-17T12:01:09;13.50;;;5.13;;
72920;SDS011;61064;51.654;5.476;2023-08-17T12:03:38;12.88;;;5.05;;
72920;SDS011;61064;51.654;5.476;2023-08-17T12:06:05;11.87;;;5.13;;
72920;SDS011;61064;51.654;5.476;2023-08-17T12:08:32;11.38;;;4.97;;
72920;SDS011;61064;51.654;5.476;2023-08-17T12:10:58;15.30;;;5.35;;
72920;SDS011;61064;51.654;5.476;2023-08-17T12:13:33;12.67;;;5.33;;
72920;SDS011;61064;51.654;5.476;2023-08-17T12:16:00;14.30;;;5.97;;
72920;SDS011;61064;51.654;5.476;2023-08-17T12:18:26;13.00;;;5.60;;
72920;SDS011;61064;51.654;5.476;2023-08-17T12:20:56;11.40;;;5.07;;
72920;SDS011;61064;51.654;5.476;2023-08-17T12:23:21;13.30;;;5.30;;
72920;SDS011;61064;51.654;5.476;2023-08-17T12:25:52;13.20;;;5.30;;
72920;SDS011;61064;51.654;5.476;2023-08-17T12:28:20;12.35;;;5.15;;
72920;SDS011;61064;51.654;5.476;2023-08-17T12:30:46;11.82;;;5.15;;
72920;SDS011;61064;51.654;5.476;2023-08-17T12:33:12;12.53;;;5.50;;
72920;SDS011;61064;51.654;5.476;2023-08-17T12:35:38;11.30;;;5.53;;
72920;SDS011;61064;51.654;5.476;2023-08-17T12:38:04;16.13;;;5.60;;
72920;SDS011;61064;51.654;5.476;2023-08-17T12:40:29;14.13;;;5.35;;
72920;SDS011;61064;51.654;5.476;2023-08-17T12:42:57;14.83;;;5.60;;
72920;SDS011;61064;51.654;5.476;2023-08-17T12:45:22;12.60;;;5.30;;
72920;SDS011;61064;51.654;5.476;2023-08-17T12:47:48;15.10;;;5.37;;
72920;SDS011;61064;51.654;5.476;2023-08-17T12:50:13;12.07;;;5.93;;
72920;SDS011;61064;51.654;5.476;2023-08-17T12:52:39;15.10;;;6.60;;
72920;SDS011;61064;51.654;5.476;2023-08-17T12:55:04;13.13;;;5.80;;
72920;SDS011;61064;51.654;5.476;2023-08-17T12:57:30;13.35;;;6.00;;
72920;SDS011;61064;51.654;5.476;2023-08-17T12:59:55;12.50;;;6.03;;
72920;SDS011;61064;51.654;5.476;2023-08-17T13:02:21;15.00;;;6.13;;
72920;SDS011;61064;51.654;5.476;2023-08-17T13:04:46;11.10;;;5.87;;
72920;SDS011;61064;51.654;5.476;2023-08-17T13:07:11;14.17;;;6.03;;
72920;SDS011;61064;51.654;5.476;2023-08-17T13:09:37;15.33;;;6.70;;
72920;SDS011;61064;51.654;5.476;2023-08-17T13:12:02;17.27;;;6.23;;
72920;SDS011;61064;51.654;5.476;2023-08-17T13:14:28;13.70;;;6.05;;
72920;SDS011;61064;51.654;5.476;2023-08-17T13:16:53;13.57;;;6.10;;
72920;SDS011;61064;51.654;5.476;2023-08-17T13:19:19;12.70;;;6.17;;
72920;SDS011;61064;51.654;5.476;2023-08-17T13:21:44;15.77;;;6.40;;
72920;SDS011;61064;51.654;5.476;2023-08-17T13:24:10;12.57;;;5.93;;
72920;SDS011;61064;51.654;5.476;2023-08-17T13:26:35;13.73;;;5.77;;
72920;SDS011;61064;51.654;5.476;2023-08-17T13:29:01;13.10;;;5.70;;
72920;SDS011;61064;51.654;5.476;2023-08-17T13:31:26;16.08;;;6.00;;
72920;SDS011;61064;51.654;5.476;2023-08-17T13:33:52;14.90;;;6.50;;
72920;SDS011;61064;51.654;5.476;2023-08-17T13:36:18;12.80;;;6.27;;
72920;SDS011;61064;51.654;5.476;2023-08-17T13:38:44;14.48;;;6.47;;
72920;SDS011;61064;51.654;5.476;2023-08-17T13:41:10;12.65;;;6.35;;
72920;SDS011;61064;51.654;5.476;2023-08-17T13:43:35;13.07;;;6.40;;
72920;SDS011;61064;51.654;5.476;2023-08-17T13:46:01;13.73;;;6.27;;
72920;SDS011;61064;51.654;5.476;2023-08-17T13:48:26;12.02;;;6.07;;
72920;SDS011;61064;51.654;5.476;2023-08-17T13:50:52;13.67;;;6.03;;
72920;SDS011;61064;51.654;5.476;2023-08-17T13:53:17;13.20;;;6.37;;
72920;SDS011;61064;51.654;5.476;2023-08-17T13:55:42;16.50;;;6.27;;
72920;SDS011;61064;51.654;5.476;2023-08-17T13:58:09;12.83;;;6.10;;
72920;SDS011;61064;51.654;5.476;2023-08-17T14:00:36;14.75;;;7.60;;
72920;SDS011;61064;51.654;5.476;2023-08-17T14:03:01;13.57;;;6.32;;
72920;SDS011;61064;51.654;5.476;2023-08-17T14:05:28;14.13;;;6.50;;
72920;SDS011;61064;51.654;5.476;2023-08-17T14:07:53;13.98;;;6.57;;
72920;SDS011;61064;51.654;5.476;2023-08-17T14:10:18;12.93;;;6.47;;
72920;SDS011;61064;51.654;5.476;2023-08-17T14:12:44;13.17;;;6.60;;
72920;SDS011;61064;51.654;5.476;2023-08-17T14:15:09;12.27;;;6.50;;
72920;SDS011;61064;51.654;5.476;2023-08-17T14:17:35;14.40;;;6.88;;
72920;SDS011;61064;51.654;5.476;2023-08-17T14:20:00;15.33;;;6.43;;
72920;SDS011;61064;51.654;5.476;2023-08-17T14:22:26;15.10;;;6.37;;
72920;SDS011;61064;51.654;5.476;2023-08-17T14:24:51;14.13;;;6.53;;
72920;SDS011;61064;51.654;5.476;2023-08-17T14:27:16;18.23;;;7.50;;
72920;SDS011;61064;51.654;5.476;2023-08-17T14:29:42;14.07;;;7.00;;
72920;SDS011;61064;51.654;5.476;2023-08-17T14:32:07;15.83;;;7.10;;
72920;SDS011;61064;51.654;5.476;2023-08-17T14:34:32;17.23;;;6.73;;
72920;SDS011;61064;51.654;5.476;2023-08-17T14:36:58;13.13;;;7.20;;
72920;SDS011;61064;51.654;5.476;2023-08-17T14:39:24;14.75;;;7.10;;
72920;SDS011;61064;51.654;5.476;2023-08-17T14:41:49;12.17;;;6.60;;
72920;SDS011;61064;51.654;5.476;2023-08-17T14:44:14;12.43;;;6.83;;
72920;SDS011;61064;51.654;5.476;2023-08-17T14:46:42;14.57;;;7.22;;
72920;SDS011;61064;51.654;5.476;2023-08-17T14:49:08;13.87;;;6.87;;
72920;SDS011;61064;51.654;5.476;2023-08-17T14:51:37;12.52;;;7.07;;